Birmingham, AL

7:15 AM CST on January 26, 2015 (GMT -0600)
Central Business District | Change Station
CLOSE
Current Station
Personal Weather Station
Location: Birmingham, AL
Elevation: 636 ft
Nearby Weather Stations

Elev 636 ft 33.52 °N, 86.81 °W | Updated 1 second ago

Overcast
Overcast
43.2 °F
Feels Like 43 °F
N
1.1
Wind Variable Wind from SE
Gusts 5.6 mph

Today
High -- | Low -- °F
--% Chance of Precip.
Yesterday
High -- | Low -- °F
Precip. -- in
6:47 AM 5:12 PM
Waxing Crescent, 43% visible
Pressure 29.94 in
Visibility 10.0 miles
Clouds Overcast 1200 ft
Windchill 43 °F
Dew Point 37 °F
Humidity 79%
Rainfall 0.00 in
Snow Depth Not available.
UV 0 out of 12
Pollen 1.60 out of 12
Air Quality Not available.
Flu Activity Not available.
METAR KBHM 261253Z 29012KT 10SM OVC012 06/03 A2994 RMK AO2 SLP139 T00560028

More Conditions Fewer Conditions

Pressure 29.94 in
Visibility 10.0 miles
Clouds Overcast 1200 ft
Windchill 43 °F
Dew Point 37 °F
Humidity 79%
Rainfall 0.00 in
Snow Depth Not available.
UV 0 out of 12
Pollen 1.60 out of 12
Air Quality Not available.
Flu Activity Not available.
METAR KBHM 261253Z 29012KT 10SM OVC012 06/03 A2994 RMK AO2 SLP139 T00560028

More Conditions Fewer Conditions

10-Day Weather Forecast

Almanac

Astronomy

Jan. 26, 2015 Rise Set
Actual Time
Civil Twilight
Nautical Twilight
Astronomical Twilight
Moon
Length of Visible Light
Length of Day
Tomorrow will be .
, % of the Moon is Illuminated

Today's Extremes

State Highs State Lows

Community

WunderPhotos

Upload Photos

1,790,192 photos uploaded!

WunderBlogs® & News

Nearby

Air Quality

  Air Quality AQ Index Pollutant
Not available.

Snow Depth

Station Depth Elevation

Earthquake Activity

City Distance Mag. Time & Date
Minimum magnitude displayed is 2.5.

Coastal Water Temperatures

Place Temperature

Nearby Weather Stations